sensor_id;sensor_type;location;lat;lon;timestamp;temperature;humidity
37158;DHT22;23050;51.776;22.638;2022-12-26T00:00:56;2.80;99.90
37158;DHT22;23050;51.776;22.638;2022-12-26T00:03:22;2.80;99.90
37158;DHT22;23050;51.776;22.638;2022-12-26T00:05:48;2.80;99.90
37158;DHT22;23050;51.776;22.638;2022-12-26T00:08:13;2.70;99.90
37158;DHT22;23050;51.776;22.638;2022-12-26T00:10:39;2.70;99.90
37158;DHT22;23050;51.776;22.638;2022-12-26T00:13:05;2.60;99.90
37158;DHT22;23050;51.776;22.638;2022-12-26T00:15:31;2.60;99.90
37158;DHT22;23050;51.776;22.638;2022-12-26T00:17:56;2.60;99.90
37158;DHT22;23050;51.776;22.638;2022-12-26T00:20:22;2.60;99.90
37158;DHT22;23050;51.776;22.638;2022-12-26T00:22:47;2.60;99.90
37158;DHT22;23050;51.776;22.638;2022-12-26T00:25:13;2.60;99.90
37158;DHT22;23050;51.776;22.638;2022-12-26T00:27:38;2.60;99.90
37158;DHT22;23050;51.776;22.638;2022-12-26T00:30:04;2.60;99.90
37158;DHT22;23050;51.776;22.638;2022-12-26T00:32:30;2.60;99.90
37158;DHT22;23050;51.776;22.638;2022-12-26T00:34:56;2.60;99.90
37158;DHT22;23050;51.776;22.638;2022-12-26T00:37:21;2.70;99.90
37158;DHT22;23050;51.776;22.638;2022-12-26T00:39:47;2.70;99.90
37158;DHT22;23050;51.776;22.638;2022-12-26T00:42:12;2.70;99.90
37158;DHT22;23050;51.776;22.638;2022-12-26T00:44:38;2.70;99.90
37158;DHT22;23050;51.776;22.638;2022-12-26T00:47:03;2.70;99.90
37158;DHT22;23050;51.776;22.638;2022-12-26T00:49:29;2.70;99.90
37158;DHT22;23050;51.776;22.638;2022-12-26T00:51:54;2.70;99.90
37158;DHT22;23050;51.776;22.638;2022-12-26T00:54:20;2.70;99.90
37158;DHT22;23050;51.776;22.638;2022-12-26T00:56:45;2.70;99.90
37158;DHT22;23050;51.776;22.638;2022-12-26T00:59:11;2.70;99.90
37158;DHT22;23050;51.776;22.638;2022-12-26T01:01:37;2.70;99.90
37158;DHT22;23050;51.776;22.638;2022-12-26T01:04:03;2.70;99.90
37158;DHT22;23050;51.776;22.638;2022-12-26T01:06:29;2.70;99.90
37158;DHT22;23050;51.776;22.638;2022-12-26T01:08:55;2.70;99.90
37158;DHT22;23050;51.776;22.638;2022-12-26T01:11:20;2.70;99.90
37158;DHT22;23050;51.776;22.638;2022-12-26T01:14:05;2.70;99.90
37158;DHT22;23050;51.776;22.638;2022-12-26T01:16:31;2.70;99.90
37158;DHT22;23050;51.776;22.638;2022-12-26T01:18:57;2.70;99.90
37158;DHT22;23050;51.776;22.638;2022-12-26T01:21:22;2.70;99.90
37158;DHT22;23050;51.776;22.638;2022-12-26T01:23:48;2.70;99.90
37158;DHT22;23050;51.776;22.638;2022-12-26T01:26:13;2.70;99.90
37158;DHT22;23050;51.776;22.638;2022-12-26T01:28:39;2.70;99.90
37158;DHT22;23050;51.776;22.638;2022-12-26T01:31:05;2.70;99.90
37158;DHT22;23050;51.776;22.638;2022-12-26T01:33:31;2.80;99.90
37158;DHT22;23050;51.776;22.638;2022-12-26T01:35:57;2.80;99.90
37158;DHT22;23050;51.776;22.638;2022-12-26T01:38:22;2.80;99.90
37158;DHT22;23050;51.776;22.638;2022-12-26T01:40:48;2.80;99.90
37158;DHT22;23050;51.776;22.638;2022-12-26T01:46:39;2.80;99.90
37158;DHT22;23050;51.776;22.638;2022-12-26T01:51:50;2.80;99.90
37158;DHT22;23050;51.776;22.638;2022-12-26T01:54:18;2.80;99.90
37158;DHT22;23050;51.776;22.638;2022-12-26T01:56:45;2.80;99.90
37158;DHT22;23050;51.776;22.638;2022-12-26T01:59:18;2.80;99.90
37158;DHT22;23050;51.776;22.638;2022-12-26T02:01:46;2.80;99.90
37158;DHT22;23050;51.776;22.638;2022-12-26T02:04:16;2.80;99.90
37158;DHT22;23050;51.776;22.638;2022-12-26T02:07:04;2.80;99.90
37158;DHT22;23050;51.776;22.638;2022-12-26T02:09:30;2.80;99.90
37158;DHT22;23050;51.776;22.638;2022-12-26T02:12:18;2.80;99.90
37158;DHT22;23050;51.776;22.638;2022-12-26T02:14:45;2.80;99.90
37158;DHT22;23050;51.776;22.638;2022-12-26T02:17:11;2.80;99.90
37158;DHT22;23050;51.776;22.638;2022-12-26T02:22:29;2.80;99.90
37158;DHT22;23050;51.776;22.638;2022-12-26T02:28:15;2.80;99.90
37158;DHT22;23050;51.776;22.638;2022-12-26T02:39:22;2.80;99.90
37158;DHT22;23050;51.776;22.638;2022-12-26T02:42:34;2.90;99.90
37158;DHT22;23050;51.776;22.638;2022-12-26T02:44:58;2.90;99.90
37158;DHT22;23050;51.776;22.638;2022-12-26T02:48:11;2.90;99.90
37158;DHT22;23050;51.776;22.638;2022-12-26T02:53:59;2.90;99.90
37158;DHT22;23050;51.776;22.638;2022-12-26T02:56:57;2.90;99.90
37158;DHT22;23050;51.776;22.638;2022-12-26T03:00:07;3.00;99.90
37158;DHT22;23050;51.776;22.638;2022-12-26T03:05:48;2.90;99.90
37158;DHT22;23050;51.776;22.638;2022-12-26T03:08:37;2.90;99.90
37158;DHT22;23050;51.776;22.638;2022-12-26T03:11:28;2.90;99.90
37158;DHT22;23050;51.776;22.638;2022-12-26T03:14:20;2.90;99.90
37158;DHT22;23050;51.776;22.638;2022-12-26T03:16:49;2.90;99.90
37158;DHT22;23050;51.776;22.638;2022-12-26T03:19:38;3.00;99.90
37158;DHT22;23050;51.776;22.638;2022-12-26T03:22:24;3.00;99.90
37158;DHT22;23050;51.776;22.638;2022-12-26T03:24:56;3.00;99.90
37158;DHT22;23050;51.776;22.638;2022-12-26T03:27:41;3.00;99.90
37158;DHT22;23050;51.776;22.638;2022-12-26T03:30:07;3.00;99.90
37158;DHT22;23050;51.776;22.638;2022-12-26T03:33:08;3.00;99.90
37158;DHT22;23050;51.776;22.638;2022-12-26T03:35:52;3.00;99.90
37158;DHT22;23050;51.776;22.638;2022-12-26T03:38:22;2.90;99.90
37158;DHT22;23050;51.776;22.638;2022-12-26T03:41:13;2.90;99.90
37158;DHT22;23050;51.776;22.638;2022-12-26T03:44:26;2.90;99.90
37158;DHT22;23050;51.776;22.638;2022-12-26T03:47:21;2.90;99.90
37158;DHT22;23050;51.776;22.638;2022-12-26T03:50:33;2.90;99.90
37158;DHT22;23050;51.776;22.638;2022-12-26T03:53:19;2.90;99.90
37158;DHT22;23050;51.776;22.638;2022-12-26T04:02:47;2.90;99.90
37158;DHT22;23050;51.776;22.638;2022-12-26T04:05:35;2.90;99.90
37158;DHT22;23050;51.776;22.638;2022-12-26T04:08:27;2.90;99.90
37158;DHT22;23050;51.776;22.638;2022-12-26T04:11:16;2.90;99.90
37158;DHT22;23050;51.776;22.638;2022-12-26T04:14:29;2.90;99.90
37158;DHT22;23050;51.776;22.638;2022-12-26T04:17:45;2.90;99.90
37158;DHT22;23050;51.776;22.638;2022-12-26T04:20:43;2.90;99.90
37158;DHT22;23050;51.776;22.638;2022-12-26T04:26:27;2.90;99.90
37158;DHT22;23050;51.776;22.638;2022-12-26T04:29:13;2.90;99.90
37158;DHT22;23050;51.776;22.638;2022-12-26T04:32:33;2.90;99.90
37158;DHT22;23050;51.776;22.638;2022-12-26T04:35:26;2.90;99.90
37158;DHT22;23050;51.776;22.638;2022-12-26T04:38:15;2.90;99.90
37158;DHT22;23050;51.776;22.638;2022-12-26T04:41:01;2.90;99.90
37158;DHT22;23050;51.776;22.638;2022-12-26T04:43:48;2.90;99.90
37158;DHT22;23050;51.776;22.638;2022-12-26T04:46:35;2.90;99.90
37158;DHT22;23050;51.776;22.638;2022-12-26T04:49:05;2.90;99.90
37158;DHT22;23050;51.776;22.638;2022-12-26T04:51:50;2.90;99.90
37158;DHT22;23050;51.776;22.638;2022-12-26T04:54:16;2.90;99.90
37158;DHT22;23050;51.776;22.638;2022-12-26T04:56:42;2.90;99.90
37158;DHT22;23050;51.776;22.638;2022-12-26T04:59:08;2.90;99.90
37158;DHT22;23050;51.776;22.638;2022-12-26T05:01:33;2.90;99.90
37158;DHT22;23050;51.776;22.638;2022-12-26T05:04:18;2.90;99.90
37158;DHT22;23050;51.776;22.638;2022-12-26T05:07:04;2.90;99.90
37158;DHT22;23050;51.776;22.638;2022-12-26T05:09:51;2.90;99.90
37158;DHT22;23050;51.776;22.638;2022-12-26T05:12:18;2.90;99.90
37158;DHT22;23050;51.776;22.638;2022-12-26T05:14:44;2.90;99.90
37158;DHT22;23050;51.776;22.638;2022-12-26T05:17:10;2.90;99.90
37158;DHT22;23050;51.776;22.638;2022-12-26T05:19:55;2.90;99.90
37158;DHT22;23050;51.776;22.638;2022-12-26T05:22:41;2.90;99.90
37158;DHT22;23050;51.776;22.638;2022-12-26T05:25:29;2.90;99.90
37158;DHT22;23050;51.776;22.638;2022-12-26T05:28:15;2.90;99.90
37158;DHT22;23050;51.776;22.638;2022-12-26T05:30:59;2.80;99.90
37158;DHT22;23050;51.776;22.638;2022-12-26T05:33:26;2.80;99.90
37158;DHT22;23050;51.776;22.638;2022-12-26T05:36:11;2.80;99.90
37158;DHT22;23050;51.776;22.638;2022-12-26T05:38:37;2.80;99.90
37158;DHT22;23050;51.776;22.638;2022-12-26T05:41:03;2.80;99.90
37158;DHT22;23050;51.776;22.638;2022-12-26T05:43:28;2.80;99.90
37158;DHT22;23050;51.776;22.638;2022-12-26T05:45:54;2.80;99.90
37158;DHT22;23050;51.776;22.638;2022-12-26T05:48:20;2.80;99.90
37158;DHT22;23050;51.776;22.638;2022-12-26T05:50:45;2.80;99.90
37158;DHT22;23050;51.776;22.638;2022-12-26T05:53:11;2.80;99.90
37158;DHT22;23050;51.776;22.638;2022-12-26T05:55:37;2.80;99.90
37158;DHT22;23050;51.776;22.638;2022-12-26T05:58:02;2.80;99.90
37158;DHT22;23050;51.776;22.638;2022-12-26T06:00:28;2.80;99.90
37158;DHT22;23050;51.776;22.638;2022-12-26T06:02:54;2.80;99.90
37158;DHT22;23050;51.776;22.638;2022-12-26T06:05:20;2.80;99.90
37158;DHT22;23050;51.776;22.638;2022-12-26T06:07:46;2.80;99.90
37158;DHT22;23050;51.776;22.638;2022-12-26T06:10:12;2.80;99.90
37158;DHT22;23050;51.776;22.638;2022-12-26T06:12:38;2.80;99.90
37158;DHT22;23050;51.776;22.638;2022-12-26T06:15:04;2.80;99.90
37158;DHT22;23050;51.776;22.638;2022-12-26T06:17:29;2.90;99.90
37158;DHT22;23050;51.776;22.638;2022-12-26T06:19:55;2.90;99.90
37158;DHT22;23050;51.776;22.638;2022-12-26T06:22:20;2.90;99.90
37158;DHT22;23050;51.776;22.638;2022-12-26T06:24:47;2.90;99.90
37158;DHT22;23050;51.776;22.638;2022-12-26T06:27:13;2.90;99.90
37158;DHT22;23050;51.776;22.638;2022-12-26T06:29:38;2.90;99.90
37158;DHT22;23050;51.776;22.638;2022-12-26T06:32:04;2.90;99.90
37158;DHT22;23050;51.776;22.638;2022-12-26T06:34:30;2.90;99.90
37158;DHT22;23050;51.776;22.638;2022-12-26T06:36:55;2.90;99.90
37158;DHT22;23050;51.776;22.638;2022-12-26T06:39:21;3.00;99.90
37158;DHT22;23050;51.776;22.638;2022-12-26T06:41:47;3.00;99.90
37158;DHT22;23050;51.776;22.638;2022-12-26T06:44:13;3.00;99.90
37158;DHT22;23050;51.776;22.638;2022-12-26T06:46:38;3.00;99.90
37158;DHT22;23050;51.776;22.638;2022-12-26T06:49:04;3.00;99.90
37158;DHT22;23050;51.776;22.638;2022-12-26T06:51:31;3.00;99.90
37158;DHT22;23050;51.776;22.638;2022-12-26T06:53:58;3.00;99.90
37158;DHT22;23050;51.776;22.638;2022-12-26T06:56:26;3.00;99.90
37158;DHT22;23050;51.776;22.638;2022-12-26T06:59:00;3.00;99.90
37158;DHT22;23050;51.776;22.638;2022-12-26T07:01:28;3.00;99.90
37158;DHT22;23050;51.776;22.638;2022-12-26T07:03:54;3.10;99.90
37158;DHT22;23050;51.776;22.638;2022-12-26T07:06:33;3.10;99.90
37158;DHT22;23050;51.776;22.638;2022-12-26T07:09:04;3.10;99.90
37158;DHT22;23050;51.776;22.638;2022-12-26T07:11:32;3.10;99.90
37158;DHT22;23050;51.776;22.638;2022-12-26T07:13:58;3.10;99.90
37158;DHT22;23050;51.776;22.638;2022-12-26T07:16:24;3.10;99.90
37158;DHT22;23050;51.776;22.638;2022-12-26T07:18:54;3.10;99.90
37158;DHT22;23050;51.776;22.638;2022-12-26T07:21:20;3.10;99.90
37158;DHT22;23050;51.776;22.638;2022-12-26T07:23:46;3.10;99.90
37158;DHT22;23050;51.776;22.638;2022-12-26T07:26:12;3.10;99.90
37158;DHT22;23050;51.776;22.638;2022-12-26T07:28:37;3.10;99.90
37158;DHT22;23050;51.776;22.638;2022-12-26T07:31:03;3.10;99.90
37158;DHT22;23050;51.776;22.638;2022-12-26T07:33:30;3.10;99.90
37158;DHT22;23050;51.776;22.638;2022-12-26T07:36:02;3.10;99.90
37158;DHT22;23050;51.776;22.638;2022-12-26T07:38:28;3.20;99.90
37158;DHT22;23050;51.776;22.638;2022-12-26T07:40:55;3.10;99.90
37158;DHT22;23050;51.776;22.638;2022-12-26T07:43:21;3.10;99.90
37158;DHT22;23050;51.776;22.638;2022-12-26T07:45:47;3.10;99.90
37158;DHT22;23050;51.776;22.638;2022-12-26T07:48:13;3.10;99.90
37158;DHT22;23050;51.776;22.638;2022-12-26T07:50:38;3.10;99.90
37158;DHT22;23050;51.776;22.638;2022-12-26T07:53:04;3.20;99.90
37158;DHT22;23050;51.776;22.638;2022-12-26T07:55:30;3.20;99.90
37158;DHT22;23050;51.776;22.638;2022-12-26T07:57:55;3.20;99.90
37158;DHT22;23050;51.776;22.638;2022-12-26T08:00:21;3.20;99.90
37158;DHT22;23050;51.776;22.638;2022-12-26T08:02:48;3.20;99.90
37158;DHT22;23050;51.776;22.638;2022-12-26T08:05:15;3.20;99.90
37158;DHT22;23050;51.776;22.638;2022-12-26T08:07:40;3.20;99.90
37158;DHT22;23050;51.776;22.638;2022-12-26T08:10:06;3.20;99.90
37158;DHT22;23050;51.776;22.638;2022-12-26T08:12:32;3.30;99.90
37158;DHT22;23050;51.776;22.638;2022-12-26T08:14:58;3.30;99.90
37158;DHT22;23050;51.776;22.638;2022-12-26T08:17:24;3.30;99.90
37158;DHT22;23050;51.776;22.638;2022-12-26T08:19:50;3.30;99.90
37158;DHT22;23050;51.776;22.638;2022-12-26T08:22:15;3.30;99.90
37158;DHT22;23050;51.776;22.638;2022-12-26T08:24:41;3.30;99.90
37158;DHT22;23050;51.776;22.638;2022-12-26T08:27:07;3.30;99.90
37158;DHT22;23050;51.776;22.638;2022-12-26T08:29:32;3.40;99.90
37158;DHT22;23050;51.776;22.638;2022-12-26T08:31:58;3.40;99.90
37158;DHT22;23050;51.776;22.638;2022-12-26T08:34:23;3.40;99.90
37158;DHT22;23050;51.776;22.638;2022-12-26T08:36:50;3.40;99.90
37158;DHT22;23050;51.776;22.638;2022-12-26T08:39:16;3.40;99.90
37158;DHT22;23050;51.776;22.638;2022-12-26T08:41:42;3.40;99.90
37158;DHT22;23050;51.776;22.638;2022-12-26T08:44:09;3.50;99.90
37158;DHT22;23050;51.776;22.638;2022-12-26T08:46:35;3.50;99.90
37158;DHT22;23050;51.776;22.638;2022-12-26T08:49:01;3.50;99.90
37158;DHT22;23050;51.776;22.638;2022-12-26T08:51:27;3.60;99.90
37158;DHT22;23050;51.776;22.638;2022-12-26T08:53:53;3.60;99.90
37158;DHT22;23050;51.776;22.638;2022-12-26T08:56:22;3.50;99.90
37158;DHT22;23050;51.776;22.638;2022-12-26T08:58:48;3.50;99.90
37158;DHT22;23050;51.776;22.638;2022-12-26T09:01:19;3.50;99.90
37158;DHT22;23050;51.776;22.638;2022-12-26T09:03:45;3.60;99.90
37158;DHT22;23050;51.776;22.638;2022-12-26T09:06:13;3.60;99.90
37158;DHT22;23050;51.776;22.638;2022-12-26T09:08:40;3.70;99.90
37158;DHT22;23050;51.776;22.638;2022-12-26T09:11:25;3.70;99.90
37158;DHT22;23050;51.776;22.638;2022-12-26T09:13:51;3.70;99.90
37158;DHT22;23050;51.776;22.638;2022-12-26T09:16:19;3.80;99.90
37158;DHT22;23050;51.776;22.638;2022-12-26T09:18:46;3.80;99.90
37158;DHT22;23050;51.776;22.638;2022-12-26T09:21:13;3.80;99.90
37158;DHT22;23050;51.776;22.638;2022-12-26T09:23:40;3.80;99.90
37158;DHT22;23050;51.776;22.638;2022-12-26T09:28:34;3.80;99.90
37158;DHT22;23050;51.776;22.638;2022-12-26T09:31:11;3.90;99.90
37158;DHT22;23050;51.776;22.638;2022-12-26T09:33:38;3.90;99.90
37158;DHT22;23050;51.776;22.638;2022-12-26T09:36:06;3.90;99.90
37158;DHT22;23050;51.776;22.638;2022-12-26T09:38:32;4.10;99.90
37158;DHT22;23050;51.776;22.638;2022-12-26T09:49:37;4.30;99.90
37158;DHT22;23050;51.776;22.638;2022-12-26T09:52:11;4.40;99.90
37158;DHT22;23050;51.776;22.638;2022-12-26T09:54:42;4.50;99.90
37158;DHT22;23050;51.776;22.638;2022-12-26T09:57:20;4.60;99.90
37158;DHT22;23050;51.776;22.638;2022-12-26T10:00:00;4.60;99.90
37158;DHT22;23050;51.776;22.638;2022-12-26T10:02:28;4.70;99.90
37158;DHT22;23050;51.776;22.638;2022-12-26T10:04:54;4.70;99.90
37158;DHT22;23050;51.776;22.638;2022-12-26T10:10:20;4.80;99.90
37158;DHT22;23050;51.776;22.638;2022-12-26T10:13:11;4.80;99.90
37158;DHT22;23050;51.776;22.638;2022-12-26T10:15:48;4.80;99.90
37158;DHT22;23050;51.776;22.638;2022-12-26T10:21:17;4.80;99.90
37158;DHT22;23050;51.776;22.638;2022-12-26T10:26:42;4.90;99.90
37158;DHT22;23050;51.776;22.638;2022-12-26T10:29:11;4.80;99.90
37158;DHT22;23050;51.776;22.638;2022-12-26T10:31:59;4.80;99.90
37158;DHT22;23050;51.776;22.638;2022-12-26T10:34:31;4.90;99.90
37158;DHT22;23050;51.776;22.638;2022-12-26T10:42:35;4.90;99.90
37158;DHT22;23050;51.776;22.638;2022-12-26T10:45:01;4.80;99.90
37158;DHT22;23050;51.776;22.638;2022-12-26T10:47:38;4.80;99.90
37158;DHT22;23050;51.776;22.638;2022-12-26T10:50:05;4.80;99.90
37158;DHT22;23050;51.776;22.638;2022-12-26T10:52:36;4.80;99.90
37158;DHT22;23050;51.776;22.638;2022-12-26T10:55:02;4.90;99.90
37158;DHT22;23050;51.776;22.638;2022-12-26T10:57:30;4.90;99.90
37158;DHT22;23050;51.776;22.638;2022-12-26T10:59:57;4.90;99.90
37158;DHT22;23050;51.776;22.638;2022-12-26T11:02:27;4.90;99.90
37158;DHT22;23050;51.776;22.638;2022-12-26T11:05:08;4.90;99.90
37158;DHT22;23050;51.776;22.638;2022-12-26T11:07:42;4.90;99.90
37158;DHT22;23050;51.776;22.638;2022-12-26T11:10:36;5.00;99.90
37158;DHT22;23050;51.776;22.638;2022-12-26T11:13:06;5.00;99.90
37158;DHT22;23050;51.776;22.638;2022-12-26T11:15:40;5.00;99.90
37158;DHT22;23050;51.776;22.638;2022-12-26T11:18:19;5.10;99.90
37158;DHT22;23050;51.776;22.638;2022-12-26T11:20:46;5.10;99.90
37158;DHT22;23050;51.776;22.638;2022-12-26T11:23:26;5.10;99.90
37158;DHT22;23050;51.776;22.638;2022-12-26T11:25:55;5.20;99.90
37158;DHT22;23050;51.776;22.638;2022-12-26T11:28:31;5.30;99.90
37158;DHT22;23050;51.776;22.638;2022-12-26T11:30:58;5.50;99.90
37158;DHT22;23050;51.776;22.638;2022-12-26T11:33:34;5.50;99.90
37158;DHT22;23050;51.776;22.638;2022-12-26T11:36:08;5.50;99.90
37158;DHT22;23050;51.776;22.638;2022-12-26T11:44:18;5.70;99.90
37158;DHT22;23050;51.776;22.638;2022-12-26T11:47:08;5.70;99.90
37158;DHT22;23050;51.776;22.638;2022-12-26T11:49:36;5.80;99.90
37158;DHT22;23050;51.776;22.638;2022-12-26T11:55:36;6.00;99.90
37158;DHT22;23050;51.776;22.638;2022-12-26T12:00:39;6.20;99.90
37158;DHT22;23050;51.776;22.638;2022-12-26T12:03:40;6.20;99.90
37158;DHT22;23050;51.776;22.638;2022-12-26T12:17:18;6.30;99.90
37158;DHT22;23050;51.776;22.638;2022-12-26T12:19:59;6.30;99.90
37158;DHT22;23050;51.776;22.638;2022-12-26T12:22:52;6.30;99.90
37158;DHT22;23050;51.776;22.638;2022-12-26T12:28:14;6.30;99.90
37158;DHT22;23050;51.776;22.638;2022-12-26T12:31:45;6.40;99.90
37158;DHT22;23050;51.776;22.638;2022-12-26T12:39:18;6.50;99.90
37158;DHT22;23050;51.776;22.638;2022-12-26T12:56:11;6.50;99.90
37158;DHT22;23050;51.776;22.638;2022-12-26T12:59:02;6.50;99.90
37158;DHT22;23050;51.776;22.638;2022-12-26T13:01:38;6.50;99.90
37158;DHT22;23050;51.776;22.638;2022-12-26T13:04:23;6.60;99.90
37158;DHT22;23050;51.776;22.638;2022-12-26T13:06:57;6.60;99.90
37158;DHT22;23050;51.776;22.638;2022-12-26T13:09:25;6.60;99.90
37158;DHT22;23050;51.776;22.638;2022-12-26T13:12:24;6.60;99.90
37158;DHT22;23050;51.776;22.638;2022-12-26T13:18:06;6.70;99.90
37158;DHT22;23050;51.776;22.638;2022-12-26T13:23:30;6.80;99.90
37158;DHT22;23050;51.776;22.638;2022-12-26T13:26:29;6.80;99.90
37158;DHT22;23050;51.776;22.638;2022-12-26T13:32:22;6.80;99.90
37158;DHT22;23050;51.776;22.638;2022-12-26T13:34:50;6.90;99.90
37158;DHT22;23050;51.776;22.638;2022-12-26T13:39:58;6.80;99.90
37158;DHT22;23050;51.776;22.638;2022-12-26T13:42:53;6.80;99.90
37158;DHT22;23050;51.776;22.638;2022-12-26T13:45:50;6.90;99.90
37158;DHT22;23050;51.776;22.638;2022-12-26T13:53:37;6.90;99.90
37158;DHT22;23050;51.776;22.638;2022-12-26T13:56:13;6.90;99.90
37158;DHT22;23050;51.776;22.638;2022-12-26T13:59:09;7.00;99.90
37158;DHT22;23050;51.776;22.638;2022-12-26T14:10:17;7.00;99.90
37158;DHT22;23050;51.776;22.638;2022-12-26T14:16:19;7.00;99.90
37158;DHT22;23050;51.776;22.638;2022-12-26T14:24:15;6.90;99.90
37158;DHT22;23050;51.776;22.638;2022-12-26T14:26:52;6.80;99.90
37158;DHT22;23050;51.776;22.638;2022-12-26T14:35:30;6.70;99.90
37158;DHT22;23050;51.776;22.638;2022-12-26T14:38:16;6.70;99.90
37158;DHT22;23050;51.776;22.638;2022-12-26T14:41:03;6.70;99.90
37158;DHT22;23050;51.776;22.638;2022-12-26T14:43:35;6.70;99.90
37158;DHT22;23050;51.776;22.638;2022-12-26T14:46:03;6.80;99.90
37158;DHT22;23050;51.776;22.638;2022-12-26T14:53:45;6.90;99.90
37158;DHT22;23050;51.776;22.638;2022-12-26T15:14:31;7.10;99.90
37158;DHT22;23050;51.776;22.638;2022-12-26T15:17:21;7.10;99.90
37158;DHT22;23050;51.776;22.638;2022-12-26T15:23:04;7.00;99.90
37158;DHT22;23050;51.776;22.638;2022-12-26T15:33:38;6.90;99.90
37158;DHT22;23050;51.776;22.638;2022-12-26T15:36:33;6.90;99.90
37158;DHT22;23050;51.776;22.638;2022-12-26T15:39:14;6.90;99.90
37158;DHT22;23050;51.776;22.638;2022-12-26T15:41:45;6.90;99.90
37158;DHT22;23050;51.776;22.638;2022-12-26T15:44:18;6.90;99.90
37158;DHT22;23050;51.776;22.638;2022-12-26T15:47:20;6.90;99.90
37158;DHT22;23050;51.776;22.638;2022-12-26T15:52:42;6.80;99.90
37158;DHT22;23050;51.776;22.638;2022-12-26T15:55:55;6.90;99.90
37158;DHT22;23050;51.776;22.638;2022-12-26T16:00:50;6.80;99.90
37158;DHT22;23050;51.776;22.638;2022-12-26T16:03:48;6.80;99.90
37158;DHT22;23050;51.776;22.638;2022-12-26T16:06:44;6.80;99.90
37158;DHT22;23050;51.776;22.638;2022-12-26T16:11:58;6.80;99.90
37158;DHT22;23050;51.776;22.638;2022-12-26T16:16:49;6.80;99.90
37158;DHT22;23050;51.776;22.638;2022-12-26T16:19:21;6.80;99.90
37158;DHT22;23050;51.776;22.638;2022-12-26T16:22:11;6.90;99.90
37158;DHT22;23050;51.776;22.638;2022-12-26T16:24:57;6.90;99.90
37158;DHT22;23050;51.776;22.638;2022-12-26T16:27:24;6.90;99.90
37158;DHT22;23050;51.776;22.638;2022-12-26T16:29:55;6.90;99.90
37158;DHT22;23050;51.776;22.638;2022-12-26T16:32:28;6.90;99.90
37158;DHT22;23050;51.776;22.638;2022-12-26T16:34:57;6.90;99.90
37158;DHT22;23050;51.776;22.638;2022-12-26T16:37:24;6.90;99.90
37158;DHT22;23050;51.776;22.638;2022-12-26T16:42:30;6.90;99.90
37158;DHT22;23050;51.776;22.638;2022-12-26T16:44:56;6.90;99.90
37158;DHT22;23050;51.776;22.638;2022-12-26T16:47:29;6.90;99.90
37158;DHT22;23050;51.776;22.638;2022-12-26T16:49:56;6.90;99.90
37158;DHT22;23050;51.776;22.638;2022-12-26T16:52:37;6.90;99.90
37158;DHT22;23050;51.776;22.638;2022-12-26T16:57:48;6.90;99.90
37158;DHT22;23050;51.776;22.638;2022-12-26T17:00:19;7.00;99.90
37158;DHT22;23050;51.776;22.638;2022-12-26T17:02:48;6.90;99.90
37158;DHT22;23050;51.776;22.638;2022-12-26T17:05:29;6.90;99.90
37158;DHT22;23050;51.776;22.638;2022-12-26T17:07:57;6.90;99.90
37158;DHT22;23050;51.776;22.638;2022-12-26T17:10:29;6.90;99.90
37158;DHT22;23050;51.776;22.638;2022-12-26T17:12:59;6.90;99.90
37158;DHT22;23050;51.776;22.638;2022-12-26T17:15:31;7.00;99.90
37158;DHT22;23050;51.776;22.638;2022-12-26T17:17:58;7.00;99.90
37158;DHT22;23050;51.776;22.638;2022-12-26T17:22:51;7.00;99.90
37158;DHT22;23050;51.776;22.638;2022-12-26T17:27:48;7.00;99.90
37158;DHT22;23050;51.776;22.638;2022-12-26T17:30:41;7.00;99.90
37158;DHT22;23050;51.776;22.638;2022-12-26T17:33:25;7.10;99.90
37158;DHT22;23050;51.776;22.638;2022-12-26T17:35:56;7.10;99.90
37158;DHT22;23050;51.776;22.638;2022-12-26T17:38:25;7.10;99.90
37158;DHT22;23050;51.776;22.638;2022-12-26T17:40:53;7.10;99.90
37158;DHT22;23050;51.776;22.638;2022-12-26T17:43:28;7.10;99.90
37158;DHT22;23050;51.776;22.638;2022-12-26T17:45:54;7.20;99.90
37158;DHT22;23050;51.776;22.638;2022-12-26T17:48:19;7.20;99.90
37158;DHT22;23050;51.776;22.638;2022-12-26T17:50:47;7.20;99.90
37158;DHT22;23050;51.776;22.638;2022-12-26T17:53:21;7.20;99.90
37158;DHT22;23050;51.776;22.638;2022-12-26T17:55:48;7.20;99.90
37158;DHT22;23050;51.776;22.638;2022-12-26T17:58:14;7.30;99.90
37158;DHT22;23050;51.776;22.638;2022-12-26T18:00:41;7.40;99.90
37158;DHT22;23050;51.776;22.638;2022-12-26T18:03:07;7.40;99.90
37158;DHT22;23050;51.776;22.638;2022-12-26T18:05:33;7.40;99.90
37158;DHT22;23050;51.776;22.638;2022-12-26T18:07:59;7.40;99.90
37158;DHT22;23050;51.776;22.638;2022-12-26T18:10:29;7.40;99.90
37158;DHT22;23050;51.776;22.638;2022-12-26T18:12:56;7.30;99.90
37158;DHT22;23050;51.776;22.638;2022-12-26T18:15:22;7.30;99.90
37158;DHT22;23050;51.776;22.638;2022-12-26T18:17:51;7.30;99.90
37158;DHT22;23050;51.776;22.638;2022-12-26T18:20:26;7.30;99.90
37158;DHT22;23050;51.776;22.638;2022-12-26T18:22:52;7.30;99.90
37158;DHT22;23050;51.776;22.638;2022-12-26T18:25:21;7.30;99.90
37158;DHT22;23050;51.776;22.638;2022-12-26T18:27:48;7.30;99.90
37158;DHT22;23050;51.776;22.638;2022-12-26T18:30:22;7.30;99.90
37158;DHT22;23050;51.776;22.638;2022-12-26T18:32:49;7.30;99.90
37158;DHT22;23050;51.776;22.638;2022-12-26T18:35:16;7.30;99.90
37158;DHT22;23050;51.776;22.638;2022-12-26T18:37:46;7.30;99.90
37158;DHT22;23050;51.776;22.638;2022-12-26T18:40:39;7.30;99.90
37158;DHT22;23050;51.776;22.638;2022-12-26T18:43:06;7.30;99.90
37158;DHT22;23050;51.776;22.638;2022-12-26T18:45:33;7.30;99.90
37158;DHT22;23050;51.776;22.638;2022-12-26T18:47:59;7.30;99.90
37158;DHT22;23050;51.776;22.638;2022-12-26T18:50:27;7.30;99.90
37158;DHT22;23050;51.776;22.638;2022-12-26T18:52:53;7.30;99.90
37158;DHT22;23050;51.776;22.638;2022-12-26T18:55:20;7.30;99.90
37158;DHT22;23050;51.776;22.638;2022-12-26T18:57:46;7.30;99.90
37158;DHT22;23050;51.776;22.638;2022-12-26T19:00:15;7.20;99.90
37158;DHT22;23050;51.776;22.638;2022-12-26T19:02:42;7.20;99.90
37158;DHT22;23050;51.776;22.638;2022-12-26T19:05:18;7.20;99.90
37158;DHT22;23050;51.776;22.638;2022-12-26T19:07:44;7.20;99.90
37158;DHT22;23050;51.776;22.638;2022-12-26T19:10:13;7.20;99.90
37158;DHT22;23050;51.776;22.638;2022-12-26T19:12:40;7.20;99.90
37158;DHT22;23050;51.776;22.638;2022-12-26T19:15:09;7.30;99.90
37158;DHT22;23050;51.776;22.638;2022-12-26T19:17:35;7.40;99.90
37158;DHT22;23050;51.776;22.638;2022-12-26T19:20:04;7.40;99.90
37158;DHT22;23050;51.776;22.638;2022-12-26T19:22:30;7.50;99.90
37158;DHT22;23050;51.776;22.638;2022-12-26T19:24:56;7.50;99.90
37158;DHT22;23050;51.776;22.638;2022-12-26T19:27:21;7.50;99.90
37158;DHT22;23050;51.776;22.638;2022-12-26T19:29:47;7.60;99.90